Windsor, MA (01270)

9:51 AM EDT on October 23, 2014 (GMT -0400)
Peru, MA Weather | Change Station
CLOSE
Current Station
Personal Weather Station
Location: Peru, MA
Elevation: 1762 ft
Nearby Weather Stations
Active Advisory: Areal Flood Warning Active Notice: Public Information Statement

Elev 1762 ft 42.45 °N, 73.07 °W | Updated 6 minutes ago

Rain
Rain
44.2 °F
Feels Like 42 °F
N
4.7
Wind Variable Wind from NNE

Today
High -- | Low -- °F
--% Chance of Precip.
Yesterday
High -- | Low -- °F
Precip. -- in
7:14 AM 5:57 PM
Waning Crescent, 0% visible
Pressure 29.76 in
Visibility 3.0 miles
Clouds Mostly Cloudy 700 ft
Mostly Cloudy 1700 ft
Overcast 3200 ft
Windchill 42 °F
Dew Point 44 °F
Humidity 99%
Rainfall 2.03 in
Snow Depth Not available.
UV 1 out of 12
Pollen .10 out of 12
PM2.5 Good
Flu Activity No Activity
SPECI KPSF 231344Z AUTO 29003KT 3SM RA BR BKN007 BKN017 OVC032 07/06 A2976 RMK AO2 P0012 T00670061

More Conditions Fewer Conditions

Pressure 29.76 in
Visibility 3.0 miles
Clouds Mostly Cloudy 700 ft
Mostly Cloudy 1700 ft
Overcast 3200 ft
Windchill 42 °F
Dew Point 44 °F
Humidity 99%
Rainfall 2.03 in
Snow Depth Not available.
UV 1 out of 12
Pollen .10 out of 12
PM2.5 Good
Flu Activity No Activity
SPECI KPSF 231344Z AUTO 29003KT 3SM RA BR BKN007 BKN017 OVC032 07/06 A2976 RMK AO2 P0012 T00670061

More Conditions Fewer Conditions

10-Day Weather Forecast

Almanac

Astronomy

Oct. 23, 2014 Rise Set
Actual Time 7:14 AM EDT 5:57 PM EDT
Civil Twilight 6:45 AM EDT 6:26 PM EDT
Nautical Twilight 6:13 AM EDT 6:59 PM EDT
Astronomical Twilight 5:40 AM EDT 7:31 PM EDT
Moon 6:51 AM EDT 5:57 PM EDT
Length of Visible Light 11h 40m
Length of Day
10h 43m
Tomorrow will be 2m 41s shorter.
Waning Crescent, 0% of the Moon is Illuminated
Today
Waning Crescent
Oct 23
New
Oct 30
First Quarter
Nov 6
Full
Nov 14
Last Quarter

Today's Extremes

State Highs State Lows

Community

WunderPhotos

Upload Photos

1,764,238 photos uploaded!

Nearby

Air Quality

  Air Quality AQ Index Pollutant
Yesterday Good
OZONE
Yesterday Good
PM2.5
Current Good
PM2.5
Thursday Good
PM2.5

Snow Depth

Station Depth Elevation
No new snow has been reported.

Earthquake Activity

City Distance Mag. Time & Date
No recent earthquake activity has been reported nearby.
Minimum magnitude displayed is 2.5.

Coastal Water Temperatures

Place Temperature
No Stations Reporting

Nearby Weather Stations